Hastings On Hudson, NY

3:49 PM EDT on March 24, 2017 (GMT -0400)
Riverview Manor | | Change Station

Elev 295 ft 41.00 °N, 73.88 °W | Updated 4 seconds ago

Overcast
Overcast
49.3 °F
Feels Like 48 °F
N
4.5
Wind Variable Wind from West
Gusts 7.4 mph

Today
High -- | Low -- °F
--% Chance of Precip.
Yesterday
High -- | Low -- °F
Precip. -- in
Pressure 30.22 in
Visibility 10.0 miles
Clouds Mostly Cloudy 6000 ft
Windchill 48 °F
Dew Point 26 °F
Humidity 40%
Rainfall 0.00 in
Snow Depth Not available.
6:51 AM 7:12 PM
Waning Crescent, 13% visible
METAR KHPN 241856Z VRB04KT 10SM BKN060 07/M01 A3020 RMK AO2 RAE03 SLP232 P0000 T00671006
Pressure 30.22 in
Visibility 10.0 miles
Clouds Mostly Cloudy 6000 ft
Windchill 48 °F
Dew Point 26 °F
Humidity 40%
Rainfall 0.00 in
Snow Depth Not available.
6:51 AM 7:12 PM
Waning Crescent, 13% visible
METAR KHPN 241856Z VRB04KT 10SM BKN060 07/M01 A3020 RMK AO2 RAE03 SLP232 P0000 T00671006

Get Severe Weather Alerts

Thanks for signing up!

Be on the lookout for a verification email in your inbox.

You'll start receiving the daily forecast at 8 AM.

×

10-Day Weather Forecast

Almanac

Astronomy

Mar. 24, 2017 Rise Set
Actual Time
Civil Twilight
Nautical Twilight
Astronomical Twilight
Moon
Length of Visible Light
Length of Day
Tomorrow will be .
, % of the Moon is Illuminated

Today's Extremes

State Highs State Lows

Community

WunderPhotos

Upload Photos

1,962,540 photos uploaded!

WunderBlog® & News

Nearby

Air Quality

  Air Quality AQ Index Pollutant
Not available.

Snow Depth

Station Depth Elevation

Earthquake Activity

City Distance Mag. Time & Date
Minimum magnitude displayed is 2.5.

Earthquake Activity

City Distance Mag. Time & Date
Minimum magnitude displayed is 2.5.

Coastal Water Temperatures

Place Temperature

Stations

Nearby Weather Stations

Station Location Temp. Windchill Dew Point Humidity Wind Precip. Elev Updated Type
                   

Watches & Warnings

There are currently no watches in effect.